createdAt,value
2022-08-18T00:00:16.479Z,80.92
2022-08-18T00:03:00.916Z,80.75
2022-08-18T00:05:36.467Z,81.19
2022-08-18T00:08:11.276Z,80.87
2022-08-18T00:10:43.447Z,81.24
2022-08-18T00:13:15.526Z,81.65
2022-08-18T00:15:48.953Z,81.91
2022-08-18T00:18:21.457Z,81.78
2022-08-18T00:20:53.503Z,81.85
2022-08-18T00:23:25.545Z,82.29
2022-08-18T00:25:59.618Z,82.28
2022-08-18T00:28:31.723Z,81.77
2022-08-18T00:31:06.168Z,81.84
2022-08-18T00:33:38.431Z,82.16
2022-08-18T00:36:13.107Z,82.04
2022-08-18T00:38:45.126Z,81.96
2022-08-18T00:41:17.246Z,82.30
2022-08-18T00:43:52.297Z,82.29
2022-08-18T00:46:34.688Z,83.58
2022-08-18T00:49:06.665Z,84.30
2022-08-18T00:51:46.214Z,84.16
2022-08-18T00:54:26.740Z,84.79
2022-08-18T00:57:04.100Z,85.90
2022-08-18T00:59:38.855Z,85.43
2022-08-18T01:02:18.344Z,85.67
2022-08-18T01:05:01.055Z,86.29
2022-08-18T01:07:42.403Z,86.40
2022-08-18T01:10:21.819Z,85.01
2022-08-18T01:12:58.168Z,86.82
2022-08-18T01:15:30.782Z,87.17
2022-08-18T01:18:31.867Z,86.61
2022-08-18T01:21:41.529Z,87.18
2022-08-18T01:24:18.545Z,87.31
2022-08-18T01:26:53.259Z,86.95
2022-08-18T01:29:28.000Z,86.27
2022-08-18T01:32:00.119Z,86.49
2022-08-18T01:34:32.183Z,86.59
2022-08-18T01:37:05.780Z,87.81
2022-08-18T01:41:27.815Z,87.85
2022-08-18T01:42:30.891Z,87.96
2022-08-18T01:45:05.838Z,89.56
2022-08-18T01:47:47.088Z,91.33
2022-08-18T01:50:20.537Z,90.75
2022-08-18T01:52:53.792Z,91.01
2022-08-18T01:55:28.460Z,91.24
2022-08-18T01:58:01.533Z,91.78
2022-08-18T02:00:34.333Z,91.57
2022-08-18T02:03:09.905Z,90.76
2022-08-18T02:05:48.202Z,91.19
2022-08-18T02:08:20.129Z,91.96
2022-08-18T02:10:52.199Z,91.93
2022-08-18T02:13:25.168Z,91.07
2022-08-18T02:15:57.350Z,90.93
2022-08-18T02:18:47.436Z,90.28
2022-08-18T02:21:21.678Z,90.66
2022-08-18T02:23:54.182Z,90.86
2022-08-18T02:26:26.407Z,91.86
2022-08-18T02:28:58.525Z,91.30
2022-08-18T02:31:30.627Z,92.03
2022-08-18T02:34:02.753Z,92.99
2022-08-18T02:36:34.853Z,93.70
2022-08-18T02:39:06.818Z,94.88
2022-08-18T02:41:38.791Z,93.63
2022-08-18T02:44:11.588Z,92.52
2022-08-18T02:46:43.591Z,92.40
2022-08-18T02:49:15.594Z,92.68
2022-08-18T02:51:47.698Z,92.70
2022-08-18T02:54:23.265Z,92.01
2022-08-18T02:56:57.403Z,92.46
2022-08-18T02:59:31.768Z,92.45
2022-08-18T03:02:05.767Z,92.52
2022-08-18T03:04:38.166Z,92.06
2022-08-18T03:07:10.151Z,92.50
2022-08-18T03:09:42.825Z,92.66
2022-08-18T03:12:14.851Z,92.26
2022-08-18T03:14:46.889Z,92.49
2022-08-18T03:17:18.875Z,91.55
2022-08-18T03:19:50.841Z,91.75
2022-08-18T03:22:28.249Z,91.03
2022-08-18T03:25:01.775Z,91.17
2022-08-18T03:27:33.795Z,91.92
2022-08-18T03:30:11.440Z,92.07
2022-08-18T03:32:45.925Z,91.95
2022-08-18T03:35:18.348Z,92.70
2022-08-18T03:37:50.612Z,93.47
2022-08-18T03:40:22.748Z,94.19
2022-08-18T03:42:54.809Z,93.98
2022-08-18T03:45:28.674Z,93.06
2022-08-18T03:48:02.254Z,92.94
2022-08-18T03:50:34.296Z,91.51
2022-08-18T03:53:06.478Z,90.93
2022-08-18T03:55:41.962Z,90.45
2022-08-18T03:58:14.744Z,90.47
2022-08-18T04:00:46.696Z,90.11
2022-08-18T04:03:18.774Z,90.30
2022-08-18T04:05:50.719Z,89.75
2022-08-18T04:08:22.859Z,89.67
2022-08-18T04:10:54.855Z,90.54
2022-08-18T04:13:26.823Z,91.18
2022-08-18T04:16:00.137Z,90.68
2022-08-18T04:18:32.640Z,89.38
2022-08-18T04:21:08.357Z,90.05
2022-08-18T04:23:43.387Z,89.79
2022-08-18T04:26:19.434Z,89.89
2022-08-18T04:28:51.580Z,90.19
2022-08-18T04:31:24.860Z,89.40
2022-08-18T04:33:59.011Z,89.02
2022-08-18T04:36:34.612Z,88.04
2022-08-18T04:39:09.811Z,88.60
2022-08-18T04:41:44.161Z,88.04
2022-08-18T04:44:17.693Z,88.04
2022-08-18T04:46:53.096Z,88.46
2022-08-18T04:49:26.714Z,88.04
2022-08-18T04:52:22.633Z,88.33
2022-08-18T04:55:10.990Z,88.95
2022-08-18T04:57:42.998Z,88.71
2022-08-18T05:00:15.437Z,88.18
2022-08-18T05:02:47.435Z,88.44
2022-08-18T05:05:19.414Z,87.99
2022-08-18T05:07:51.601Z,86.82
2022-08-18T05:10:23.663Z,87.24
2022-08-18T05:12:55.795Z,88.87
2022-08-18T05:15:27.775Z,89.16
2022-08-18T05:17:59.807Z,88.16
2022-08-18T05:20:31.760Z,87.54
2022-08-18T05:23:04.170Z,87.57
2022-08-18T05:25:36.664Z,86.77
2022-08-18T05:28:09.938Z,85.84
2022-08-18T05:30:42.726Z,85.32
2022-08-18T05:33:14.725Z,84.89
2022-08-18T05:35:52.105Z,84.67
2022-08-18T05:39:11.718Z,85.39
2022-08-18T05:41:56.043Z,84.25
2022-08-18T05:44:31.835Z,83.73
2022-08-18T05:47:24.275Z,84.45
2022-08-18T05:50:03.682Z,84.74
2022-08-18T05:52:38.319Z,84.03
2022-08-18T05:55:40.133Z,84.67
2022-08-18T05:58:19.364Z,85.11
2022-08-18T06:01:03.565Z,86.20
2022-08-18T06:03:56.990Z,85.68
2022-08-18T06:06:31.489Z,85.44
2022-08-18T06:09:29.291Z,84.05
2022-08-18T06:12:33.627Z,84.47
2022-08-18T06:15:50.990Z,83.38
2022-08-18T06:18:56.225Z,84.00
2022-08-18T06:22:01.537Z,83.77
2022-08-18T06:24:43.031Z,83.21
2022-08-18T06:27:31.469Z,83.37
2022-08-18T06:30:20.152Z,83.12
2022-08-18T06:33:01.095Z,83.26
2022-08-18T06:35:54.859Z,83.64
2022-08-18T06:38:57.762Z,83.05
2022-08-18T06:41:42.945Z,83.01
2022-08-18T06:44:31.496Z,82.95
2022-08-18T06:47:47.539Z,81.81
2022-08-18T06:50:43.548Z,81.68
2022-08-18T06:53:26.755Z,80.78
2022-08-18T06:56:35.095Z,80.62
2022-08-18T06:59:32.194Z,79.51
2022-08-18T07:02:27.431Z,80.79
2022-08-18T07:05:22.602Z,80.92
2022-08-18T07:08:19.560Z,78.12
2022-08-18T07:10:53.395Z,78.58
2022-08-18T07:13:30.285Z,77.57
2022-08-18T07:16:56.527Z,78.43
2022-08-18T07:19:31.087Z,78.93
2022-08-18T07:22:14.674Z,77.93
2022-08-18T07:24:54.583Z,78.92
2022-08-18T07:27:49.235Z,79.56
2022-08-18T07:30:21.079Z,79.63
2022-08-18T07:33:05.181Z,80.46
2022-08-18T07:36:04.380Z,78.93
2022-08-18T07:38:47.144Z,79.47
2022-08-18T07:41:26.803Z,78.82
2022-08-18T07:44:18.708Z,77.80
2022-08-18T07:47:05.223Z,77.60
2022-08-18T07:49:43.041Z,77.63
2022-08-18T07:52:43.709Z,76.19
2022-08-18T07:55:33.430Z,75.01
2022-08-18T07:58:54.574Z,75.55
2022-08-18T08:01:41.035Z,74.29
2022-08-18T08:05:00.784Z,75.10
2022-08-18T08:07:41.780Z,74.16
2022-08-18T08:11:03.902Z,74.35
2022-08-18T08:13:55.636Z,73.76
2022-08-18T08:16:50.247Z,74.78
2022-08-18T08:19:59.992Z,74.90
2022-08-18T08:23:02.246Z,76.74
2022-08-18T08:26:18.699Z,76.82
2022-08-18T08:29:24.983Z,75.30
2022-08-18T08:32:34.581Z,76.21
2022-08-18T08:35:49.771Z,75.08
2022-08-18T08:38:42.901Z,75.19
2022-08-18T08:41:41.987Z,74.88
2022-08-18T08:44:21.604Z,75.10
2022-08-18T08:47:11.152Z,75.31
2022-08-18T08:50:00.635Z,75.17
2022-08-18T08:52:48.306Z,75.97
2022-08-18T08:55:36.394Z,75.39
2022-08-18T08:58:08.305Z,74.00
2022-08-18T09:00:42.941Z,73.82
2022-08-18T09:03:42.896Z,73.61
2022-08-18T09:06:43.581Z,72.84
2022-08-18T09:09:56.185Z,72.42
2022-08-18T09:12:55.335Z,73.88
2022-08-18T09:16:13.799Z,73.17
2022-08-18T09:19:13.770Z,72.22
2022-08-18T09:22:19.433Z,72.71
2022-08-18T09:24:56.655Z,73.15
2022-08-18T09:28:10.023Z,73.37
2022-08-18T09:31:19.623Z,72.61
2022-08-18T09:34:06.685Z,72.77
2022-08-18T09:37:04.151Z,71.77
2022-08-18T09:40:00.108Z,70.47
2022-08-18T09:43:05.967Z,71.12
2022-08-18T09:45:47.194Z,71.34
2022-08-18T09:51:36.154Z,70.58
2022-08-18T09:54:21.387Z,67.54
2022-08-18T09:57:23.607Z,66.23
2022-08-18T10:00:28.125Z,63.67
2022-08-18T10:03:11.861Z,61.17
2022-08-18T10:06:03.609Z,55.38
2022-08-18T10:09:36.681Z,53.77
2022-08-18T10:12:19.396Z,51.96
2022-08-18T10:15:08.866Z,49.89
2022-08-18T10:18:17.301Z,45.73
2022-08-18T10:21:31.074Z,47.81
2022-08-18T10:24:36.446Z,44.80
2022-08-18T10:27:32.469Z,43.81
2022-08-18T10:30:06.450Z,42.22
2022-08-18T10:32:54.225Z,41.43
2022-08-18T10:35:38.397Z,41.60
2022-08-18T10:38:30.986Z,41.42
2022-08-18T10:41:30.780Z,40.82
2022-08-18T10:44:27.390Z,38.01
2022-08-18T10:46:59.954Z,37.67
2022-08-18T10:49:33.325Z,41.66
2022-08-18T10:52:29.409Z,43.61
2022-08-18T10:55:22.453Z,46.83
2022-08-18T10:58:28.062Z,44.04
2022-08-18T11:01:15.660Z,46.71
2022-08-18T11:04:33.501Z,46.25
2022-08-18T11:07:18.187Z,38.89
2022-08-18T11:10:04.505Z,34.13
2022-08-18T11:13:10.070Z,32.58
2022-08-18T11:15:54.810Z,31.00
2022-08-18T11:18:50.499Z,28.33
2022-08-18T11:21:51.638Z,29.25
2022-08-18T11:24:31.598Z,31.56
2022-08-18T11:27:23.958Z,32.68
2022-08-18T11:30:00.996Z,35.37
2022-08-18T11:32:35.346Z,37.52
2022-08-18T11:35:14.410Z,40.86
2022-08-18T11:38:00.580Z,43.37
2022-08-18T11:43:41.578Z,48.25
2022-08-18T11:46:28.258Z,50.14
2022-08-18T11:49:30.128Z,52.55
2022-08-18T11:52:29.393Z,53.89
2022-08-18T11:58:50.659Z,54.64
2022-08-18T12:01:42.117Z,55.31
2022-08-18T12:04:14.566Z,53.94
2022-08-18T12:06:55.490Z,55.08
2022-08-18T12:10:16.374Z,54.71
2022-08-18T12:12:33.102Z,54.79
2022-08-18T12:15:24.115Z,54.15
2022-08-18T12:17:56.916Z,54.49
2022-08-18T12:20:29.908Z,54.10
2022-08-18T12:23:01.906Z,54.79
2022-08-18T12:25:33.878Z,53.02
2022-08-18T12:28:11.183Z,52.80
2022-08-18T12:30:43.317Z,52.17
2022-08-18T12:33:16.698Z,51.96
2022-08-18T12:35:59.153Z,50.71
2022-08-18T12:38:36.448Z,50.17
2022-08-18T12:41:12.000Z,50.82
2022-08-18T12:43:43.996Z,52.18
2022-08-18T12:46:31.220Z,51.80
2022-08-18T12:49:05.321Z,52.06
2022-08-18T12:51:37.733Z,52.21
2022-08-18T12:57:06.642Z,51.26
2022-08-18T12:59:38.830Z,50.86
2022-08-18T13:02:13.781Z,49.65
2022-08-18T13:04:47.551Z,51.47
2022-08-18T13:07:19.713Z,51.71
2022-08-18T13:09:54.616Z,53.15
2022-08-18T13:12:27.514Z,51.23
2022-08-18T13:15:00.935Z,51.03
2022-08-18T13:17:34.367Z,49.85
2022-08-18T13:20:13.508Z,49.90
2022-08-18T13:22:45.932Z,52.00
2022-08-18T13:25:32.713Z,52.97
2022-08-18T13:28:11.918Z,53.99
2022-08-18T13:30:46.336Z,54.21
2022-08-18T13:33:34.701Z,54.52
2022-08-18T13:36:10.745Z,54.76
2022-08-18T13:38:43.582Z,55.07
2022-08-18T13:41:16.903Z,54.87
2022-08-18T13:43:49.046Z,55.51
2022-08-18T13:46:29.819Z,53.85
2022-08-18T13:49:03.591Z,53.00
2022-08-18T13:51:35.971Z,51.32
2022-08-18T13:54:29.659Z,51.17
2022-08-18T13:57:04.997Z,51.51
2022-08-18T13:59:38.898Z,53.56
2022-08-18T14:02:18.957Z,53.33
2022-08-18T14:04:51.767Z,53.60
2022-08-18T14:07:27.799Z,51.61
2022-08-18T14:10:03.676Z,49.12
2022-08-18T14:12:38.199Z,48.60
2022-08-18T14:15:15.430Z,49.78
2022-08-18T14:17:47.866Z,51.47
2022-08-18T14:20:39.245Z,53.54
2022-08-18T14:23:38.797Z,54.37
2022-08-18T14:26:34.035Z,54.84
2022-08-18T14:29:06.126Z,55.46
2022-08-18T14:31:45.081Z,54.90
2022-08-18T14:34:21.674Z,54.73
2022-08-18T14:36:53.937Z,54.32
2022-08-18T14:39:27.654Z,54.24
2022-08-18T14:41:59.784Z,54.33
2022-08-18T14:44:35.157Z,54.80
2022-08-18T14:47:07.472Z,54.85
2022-08-18T14:49:42.989Z,54.86
2022-08-18T14:52:21.478Z,55.33
2022-08-18T14:54:54.130Z,53.78
2022-08-18T14:57:26.937Z,53.70
2022-08-18T14:59:59.016Z,53.75
2022-08-18T15:02:31.025Z,54.20
2022-08-18T15:05:19.430Z,53.31
2022-08-18T15:07:56.092Z,52.59
2022-08-18T15:10:29.449Z,54.17
2022-08-18T15:13:03.683Z,54.42
2022-08-18T15:15:50.773Z,53.72
2022-08-18T15:18:24.093Z,52.38
2022-08-18T15:21:19.527Z,51.45
2022-08-18T15:24:26.884Z,51.86
2022-08-18T15:27:05.727Z,53.19
2022-08-18T15:29:41.378Z,52.52
2022-08-18T15:32:17.603Z,52.65
2022-08-18T15:34:51.454Z,53.20
2022-08-18T15:37:24.428Z,54.46
2022-08-18T15:40:21.945Z,54.73
2022-08-18T15:43:10.279Z,54.89
2022-08-18T15:45:56.129Z,55.11
2022-08-18T15:48:30.014Z,55.19
2022-08-18T15:51:11.946Z,55.63
2022-08-18T15:53:45.017Z,55.29
2022-08-18T15:56:21.732Z,55.74
2022-08-18T15:58:54.260Z,56.42
2022-08-18T16:01:32.327Z,56.23
2022-08-18T16:06:59.653Z,57.23
2022-08-18T16:09:31.710Z,58.63
2022-08-18T16:12:04.155Z,58.26
2022-08-18T16:14:40.799Z,58.36
2022-08-18T16:17:23.787Z,59.01
2022-08-18T16:20:02.192Z,58.46
2022-08-18T16:22:37.489Z,58.83
2022-08-18T16:25:10.289Z,58.81
2022-08-18T16:27:43.419Z,59.30
2022-08-18T16:30:20.816Z,59.90
2022-08-18T16:32:53.567Z,59.57
2022-08-18T16:35:25.594Z,60.04
2022-08-18T16:38:04.641Z,60.44
2022-08-18T16:40:37.670Z,60.64
2022-08-18T16:43:10.556Z,60.74
2022-08-18T16:45:42.985Z,60.72
2022-08-18T16:48:16.874Z,61.19
2022-08-18T16:50:51.334Z,61.02
2022-08-18T16:53:23.602Z,60.90
2022-08-18T16:55:55.655Z,61.19
2022-08-18T16:58:46.377Z,61.89
2022-08-18T17:01:48.795Z,62.49
2022-08-18T17:04:30.019Z,62.56
2022-08-18T17:07:07.179Z,61.85
2022-08-18T17:09:39.338Z,62.21
2022-08-18T17:12:11.787Z,62.17
2022-08-18T17:14:43.772Z,62.24
2022-08-18T17:17:19.018Z,61.34
2022-08-18T17:19:52.036Z,61.06
2022-08-18T17:22:23.998Z,61.51
2022-08-18T17:25:02.199Z,62.05
2022-08-18T17:27:37.602Z,61.57
2022-08-18T17:30:18.041Z,61.57
2022-08-18T17:32:56.733Z,61.54
2022-08-18T17:35:42.018Z,61.18
2022-08-18T17:38:38.284Z,62.29
2022-08-18T17:41:12.659Z,62.38
2022-08-18T17:46:41.072Z,62.39
2022-08-18T17:49:22.812Z,63.30
2022-08-18T17:51:56.777Z,64.38
2022-08-18T17:54:38.240Z,64.66
2022-08-18T17:57:25.457Z,64.81
2022-08-18T18:00:17.071Z,65.42
2022-08-18T18:02:49.316Z,64.91
2022-08-18T18:05:22.025Z,65.52
2022-08-18T18:07:59.250Z,65.35
2022-08-18T18:11:04.446Z,66.05
2022-08-18T18:13:36.999Z,66.85
2022-08-18T18:16:37.171Z,67.30
2022-08-18T18:19:13.437Z,68.05
2022-08-18T18:22:00.556Z,68.11
2022-08-18T18:24:38.381Z,69.01
2022-08-18T18:27:40.733Z,68.82
2022-08-18T18:30:19.297Z,69.28
2022-08-18T18:33:05.166Z,69.71
2022-08-18T18:35:54.878Z,69.84
2022-08-18T18:38:39.804Z,69.91
2022-08-18T18:41:16.813Z,69.65
2022-08-18T18:43:51.272Z,69.77
2022-08-18T18:46:31.803Z,69.88
2022-08-18T18:49:15.693Z,69.79
2022-08-18T18:52:16.584Z,70.69
2022-08-18T18:55:05.011Z,70.26
2022-08-18T18:57:59.750Z,70.18
2022-08-18T19:01:10.089Z,70.68
2022-08-18T19:03:52.650Z,70.92
2022-08-18T19:06:28.583Z,71.19
2022-08-18T19:09:18.348Z,71.43
2022-08-18T19:11:57.888Z,71.53
2022-08-18T19:14:36.974Z,72.24
2022-08-18T19:17:33.100Z,71.90
2022-08-18T19:20:21.681Z,72.33
2022-08-18T19:23:19.525Z,71.46
2022-08-18T19:26:11.232Z,71.26
2022-08-18T19:29:13.144Z,71.37
2022-08-18T19:31:56.017Z,71.27
2022-08-18T19:34:37.814Z,70.74
2022-08-18T19:37:34.704Z,71.44
2022-08-18T19:40:22.020Z,71.73
2022-08-18T19:43:26.719Z,71.15
2022-08-18T19:46:36.158Z,71.52
2022-08-18T19:49:39.879Z,72.37
2022-08-18T19:52:47.228Z,72.14
2022-08-18T19:55:47.511Z,72.83
2022-08-18T19:59:15.744Z,73.03
2022-08-18T20:02:17.623Z,73.26
2022-08-18T20:05:29.153Z,73.59
2022-08-18T20:08:19.009Z,74.47
2022-08-18T20:11:16.707Z,74.25
2022-08-18T20:13:50.103Z,73.94
2022-08-18T20:16:43.886Z,74.68
2022-08-18T20:19:46.453Z,74.09
2022-08-18T20:22:21.762Z,73.85
2022-08-18T20:25:23.826Z,74.05
2022-08-18T20:27:58.705Z,74.30
2022-08-18T20:31:12.600Z,74.85
2022-08-18T20:34:04.184Z,75.29
2022-08-18T20:36:42.292Z,74.54
2022-08-18T20:39:48.220Z,75.09
2022-08-18T20:42:24.569Z,75.20
2022-08-18T20:45:11.054Z,75.42
2022-08-18T20:48:04.344Z,75.23
2022-08-18T20:50:58.199Z,75.55
2022-08-18T20:54:02.307Z,75.33
2022-08-18T20:56:43.456Z,75.32
2022-08-18T20:59:23.735Z,75.89
2022-08-18T21:02:06.007Z,76.61
2022-08-18T21:04:52.165Z,76.26
2022-08-18T21:07:37.916Z,76.83
2022-08-18T21:10:20.126Z,77.04
2022-08-18T21:12:57.285Z,76.71
2022-08-18T21:15:36.286Z,76.36
2022-08-18T21:18:21.671Z,77.21
2022-08-18T21:20:57.233Z,76.47
2022-08-18T21:23:33.917Z,76.51
2022-08-18T21:26:15.918Z,76.62
2022-08-18T21:28:54.010Z,77.06
2022-08-18T21:31:42.803Z,76.79
2022-08-18T21:34:34.910Z,77.58
2022-08-18T21:37:10.251Z,77.53
2022-08-18T21:39:51.322Z,77.35
2022-08-18T21:42:43.633Z,77.37
2022-08-18T21:45:23.415Z,77.45
2022-08-18T21:47:59.363Z,77.24
2022-08-18T21:50:35.799Z,77.32
2022-08-18T21:53:28.170Z,77.34
2022-08-18T21:56:01.776Z,77.81
2022-08-18T21:58:40.879Z,77.95
2022-08-18T22:01:24.488Z,78.33
2022-08-18T22:04:02.957Z,78.29
2022-08-18T22:06:34.867Z,78.66
2022-08-18T22:09:32.754Z,78.28
2022-08-18T22:12:41.156Z,78.56
2022-08-18T22:15:20.484Z,78.91
2022-08-18T22:18:28.698Z,80.03
2022-08-18T22:21:02.374Z,79.35
2022-08-18T22:24:04.848Z,79.03
2022-08-18T22:26:38.616Z,78.81
2022-08-18T22:29:13.463Z,78.15
2022-08-18T22:31:49.876Z,78.49
2022-08-18T22:34:27.382Z,78.05
2022-08-18T22:37:12.106Z,78.26
2022-08-18T22:39:57.209Z,78.34
2022-08-18T22:42:35.073Z,77.85
2022-08-18T22:45:13.692Z,77.70
2022-08-18T22:47:45.726Z,77.02
2022-08-18T22:50:17.797Z,78.13
2022-08-18T22:52:50.214Z,78.62
2022-08-18T22:55:24.202Z,78.39
2022-08-18T22:57:57.193Z,77.77
2022-08-18T23:00:29.679Z,77.79
2022-08-18T23:03:02.192Z,77.67
2022-08-18T23:05:34.231Z,77.70
2022-08-18T23:08:06.203Z,78.24
2022-08-18T23:10:38.183Z,78.02
2022-08-18T23:13:11.311Z,77.82
2022-08-18T23:15:47.706Z,77.83
2022-08-18T23:18:21.791Z,77.84
2022-08-18T23:21:00.180Z,77.52
2022-08-18T23:23:32.325Z,77.87
2022-08-18T23:26:04.385Z,77.18
2022-08-18T23:28:36.407Z,77.31
2022-08-18T23:31:08.414Z,77.00
2022-08-18T23:33:41.733Z,77.04
2022-08-18T23:36:13.735Z,77.50
2022-08-18T23:38:45.704Z,76.69
2022-08-18T23:41:17.727Z,76.99
2022-08-18T23:43:50.792Z,76.93
2022-08-18T23:46:30.550Z,76.40
2022-08-18T23:49:09.248Z,76.34
2022-08-18T23:51:49.678Z,77.44
2022-08-18T23:54:30.255Z,77.50
2022-08-18T23:57:02.612Z,77.56
2022-08-18T23:59:34.585Z,77.66
